Hi Hat, KY (41636)

4:33 PM EST on February 11, 2016 (GMT -0500)
Head of Greasy Creek | | Change Station
CLOSE
Current Station
Personal Weather Station
Location: Shelbiana, KY
Elevation: 1322 ft
Nearby Weather Stations
Active Advisory: Winter Weather Advisory Active Notice: Record Report

Elev 1322 ft 37.35 °N, 82.49 °W | Updated 8 seconds ago

Clear
Clear
28.0 °F
Feels Like 28 °F
N
1.3
Wind Variable Wind from WSW
Gusts 2.5 mph

Today
High -- | Low -- °F
--% Chance of Precip.
Yesterday
High -- | Low -- °F
Precip. -- in
Pressure 30.22 in
Visibility 10.0 miles
Clouds Clear
Windchill 28 °F
Dew Point 4 °F
Humidity 35%
Rainfall 0.00 in
Snow Depth Not available.
7:25 AM 6:05 PM
Waxing Crescent, 14% visible
METAR KSJS 112115Z AUTO 29006KT 10SM CLR M02/M14 A3022 RMK AO2 T10181137
Pressure 30.22 in
Visibility 10.0 miles
Clouds Clear
Windchill 28 °F
Dew Point 4 °F
Humidity 35%
Rainfall 0.00 in
Snow Depth Not available.
7:25 AM 6:05 PM
Waxing Crescent, 14% visible
METAR KSJS 112115Z AUTO 29006KT 10SM CLR M02/M14 A3022 RMK AO2 T10181137

10-Day Weather Forecast

Almanac

Astronomy

Feb. 11, 2016 Rise Set
Actual Time
Civil Twilight
Nautical Twilight
Astronomical Twilight
Moon
Length of Visible Light
Length of Day
Tomorrow will be .
, % of the Moon is Illuminated

Today's Extremes

State Highs State Lows

Community

WunderPhotos

Upload Photos

1,892,164 photos uploaded!

WunderBlog® & News

Nearby

Air Quality

  Air Quality AQ Index Pollutant
Not available.

Snow Depth

Station Depth Elevation

Earthquake Activity

City Distance Mag. Time & Date
Minimum magnitude displayed is 2.5.

Coastal Water Temperatures

Place Temperature

Stations

Nearby Weather Stations

Station Location Temp. Windchill Dew Point Humidity Wind Precip. Elev Updated Type
                   

Watches & Warnings

Winter Weather Advisory
Issued: 2:40 PM EST Feb. 11, 2016 – National Weather Service

... Winter Weather Advisory in effect from 5 am to noon EST
Friday...

The National Weather Service in Jackson has issued a Winter
Weather Advisory for snow... which is in effect from 5 am to noon
EST Friday.

* Expect snow to develop around 5 am Friday and then diminish
around noon Friday.

* Total snow accumulations of around an inch are expected for most
of the advisory area with local amounts up to an inch and a
half possible near the Tennessee border.

* Look for reduced visibilities at times with the heavier snow
showers.

* Plan on slippery Road conditions... including during the
morning commute on Friday.

Precautionary/preparedness actions...

A Winter Weather Advisory for snow means periods of snow will
cause primarily travel difficulties. Be prepared for snow covered
roads and limited visibilities... and use caution while driving.


Greif